This is the latest recevied weather packets stored in our database for station/object KE5VT. If no packets are shown the sender has not sent any weather packets the latest 10 day(s).
| Time | Temp. | Humidity | Pressure | Rain* | Wind** | Luminosity | Snow |
|---|---|---|---|---|---|---|---|
| 1787587621 | 28.89° C | 51% | 1012.7 hPa | 0 mm | - | 639 W/m² | - |
| 1787587315 | 29.44° C | 50% | 1012.7 hPa | 0 mm | - | 629 W/m² | - |
| 1787587014 | 28.89° C | 50% | 1012.8 hPa | 0 mm | - | 624 W/m² | - |
| 1787586709 | 28.89° C | 51% | 1012.6 hPa | 0 mm | - | 614 W/m² | - |
| 1787586405 | 28.89° C | 55% | 1012.5 hPa | 0 mm | - | 602 W/m² | - |
| 1787586101 | 28.33° C | 54% | 1012.6 hPa | 0 mm | - | 598 W/m² | - |
| 1787585797 | 28.33° C | 56% | 1012.6 hPa | 0 mm | - | 589 W/m² | - |
| 1787585497 | 28.33° C | 56% | 1012.6 hPa | 0 mm | - | 584 W/m² | - |
| 1787585192 | 27.78° C | 56% | 1012.7 hPa | 0 mm | - | 382 W/m² | - |
| 1787584886 | 27.78° C | 57% | 1012.7 hPa | 0 mm | - | 361 W/m² | - |
| 1787584586 | 27.78° C | 57% | 1012.6 hPa | 0 mm | - | 559 W/m² | - |
| 1787584286 | 27.22° C | 58% | 1012.7 hPa | 0 mm | - | 550 W/m² | - |
| 1787583985 | 27.22° C | 59% | 1012.7 hPa | 0 mm | - | 192 W/m² | - |
| 1787583681 | 27.22° C | 59% | 1012.7 hPa | 0 mm | - | 229 W/m² | - |
| 1787583375 | 26.67° C | 61% | 1012.8 hPa | 0 mm | - | 298 W/m² | - |
| 1787583074 | 26.67° C | 60% | 1012.7 hPa | 0 mm | - | 73 W/m² | - |
| 1787582768 | 26.67° C | 61% | 1012.7 hPa | 0 mm | - | 42 W/m² | - |
| 1787582464 | 26.11° C | 62% | 1012.8 hPa | 0 mm | - | 41 W/m² | - |
| 1787582160 | 26.11° C | 62% | 1012.7 hPa | 0 mm | - | 240 W/m² | - |
| 1787581859 | 26.11° C | 63% | 1012.6 hPa | 0 mm | - | 109 W/m² | - |
| 1787581555 | 25.56° C | 64% | 1012.6 hPa | 0 mm | - | 76 W/m² | - |
| 1787581254 | 25.56° C | 65% | 1012.5 hPa | 0 mm | - | 40 W/m² | - |
| 1787580954 | 25.56° C | 63% | 1012.5 hPa | 0 mm | - | 38 W/m² | - |
| 1787580650 | 25.56° C | 66% | 1012.6 hPa | 0 mm | - | 50 W/m² | - |
| 1787580345 | 25° C | 66% | 1012.7 hPa | 0 mm | - | 36 W/m² | - |
* Rain latest hour (hover to see other rain measurements)
** Current wind speed in m/s (hover to see current wind gust speed)